sensor_id;sensor_type;location;lat;lon;timestamp;temperature;humidity
54158;DHT22;40065;49.894;10.358;2023-06-22T00:04:08;23.10;99.90
54158;DHT22;40065;49.894;10.358;2023-06-22T00:09:10;23.10;99.90
54158;DHT22;40065;49.894;10.358;2023-06-22T00:14:12;23.10;99.90
54158;DHT22;40065;49.894;10.358;2023-06-22T00:19:17;23.10;99.90
54158;DHT22;40065;49.894;10.358;2023-06-22T00:24:22;23.10;99.90
54158;DHT22;40065;49.894;10.358;2023-06-22T00:29:23;23.10;99.90
54158;DHT22;40065;49.894;10.358;2023-06-22T00:34:26;23.10;99.90
54158;DHT22;40065;49.894;10.358;2023-06-22T00:39:28;23.00;99.90
54158;DHT22;40065;49.894;10.358;2023-06-22T00:44:30;23.20;99.90
54158;DHT22;40065;49.894;10.358;2023-06-22T00:49:32;22.80;99.90
54158;DHT22;40065;49.894;10.358;2023-06-22T00:54:33;22.70;99.90
54158;DHT22;40065;49.894;10.358;2023-06-22T00:59:36;22.80;99.90
54158;DHT22;40065;49.894;10.358;2023-06-22T01:04:39;22.60;99.90
54158;DHT22;40065;49.894;10.358;2023-06-22T01:10:07;22.50;99.90
54158;DHT22;40065;49.894;10.358;2023-06-22T01:15:25;22.60;99.90
54158;DHT22;40065;49.894;10.358;2023-06-22T01:20:30;22.60;99.90
54158;DHT22;40065;49.894;10.358;2023-06-22T01:25:48;22.70;99.90
54158;DHT22;40065;49.894;10.358;2023-06-22T01:30:55;22.80;99.90
54158;DHT22;40065;49.894;10.358;2023-06-22T01:36:07;22.70;99.90
54158;DHT22;40065;49.894;10.358;2023-06-22T01:41:11;22.60;99.90
54158;DHT22;40065;49.894;10.358;2023-06-22T01:46:14;22.60;99.90
54158;DHT22;40065;49.894;10.358;2023-06-22T01:51:16;22.50;99.90
54158;DHT22;40065;49.894;10.358;2023-06-22T01:56:18;22.60;99.90
54158;DHT22;40065;49.894;10.358;2023-06-22T02:01:26;22.60;99.90
54158;DHT22;40065;49.894;10.358;2023-06-22T02:06:33;22.60;99.90
54158;DHT22;40065;49.894;10.358;2023-06-22T02:11:41;22.70;99.90
54158;DHT22;40065;49.894;10.358;2023-06-22T02:16:44;22.70;99.90
54158;DHT22;40065;49.894;10.358;2023-06-22T02:21:46;22.80;99.90
54158;DHT22;40065;49.894;10.358;2023-06-22T02:26:48;23.30;99.90
54158;DHT22;40065;49.894;10.358;2023-06-22T02:31:50;23.40;99.90
54158;DHT22;40065;49.894;10.358;2023-06-22T02:36:54;23.00;99.90
54158;DHT22;40065;49.894;10.358;2023-06-22T02:41:56;22.90;99.90
54158;DHT22;40065;49.894;10.358;2023-06-22T02:46:57;23.10;99.90
54158;DHT22;40065;49.894;10.358;2023-06-22T02:51:59;22.90;99.90
54158;DHT22;40065;49.894;10.358;2023-06-22T02:57:01;23.10;99.90
54158;DHT22;40065;49.894;10.358;2023-06-22T03:02:05;23.30;99.90
54158;DHT22;40065;49.894;10.358;2023-06-22T03:07:07;23.30;99.90
54158;DHT22;40065;49.894;10.358;2023-06-22T03:12:09;23.40;99.90
54158;DHT22;40065;49.894;10.358;2023-06-22T03:17:28;22.80;99.90
54158;DHT22;40065;49.894;10.358;2023-06-22T03:22:30;22.30;99.90
54158;DHT22;40065;49.894;10.358;2023-06-22T03:27:32;22.70;99.90
54158;DHT22;40065;49.894;10.358;2023-06-22T03:32:34;22.50;99.90
54158;DHT22;40065;49.894;10.358;2023-06-22T03:37:36;22.60;99.90
54158;DHT22;40065;49.894;10.358;2023-06-22T03:42:37;22.90;99.90
54158;DHT22;40065;49.894;10.358;2023-06-22T03:47:40;23.50;99.90
54158;DHT22;40065;49.894;10.358;2023-06-22T03:52:43;23.70;99.90
54158;DHT22;40065;49.894;10.358;2023-06-22T03:57:45;23.70;99.90
54158;DHT22;40065;49.894;10.358;2023-06-22T04:02:47;23.70;99.90
54158;DHT22;40065;49.894;10.358;2023-06-22T04:07:49;23.80;99.90
54158;DHT22;40065;49.894;10.358;2023-06-22T04:12:51;23.70;99.90
54158;DHT22;40065;49.894;10.358;2023-06-22T04:17:55;24.10;99.90
54158;DHT22;40065;49.894;10.358;2023-06-22T04:22:57;24.20;99.90
54158;DHT22;40065;49.894;10.358;2023-06-22T04:27:58;24.00;99.90
54158;DHT22;40065;49.894;10.358;2023-06-22T04:33:00;24.20;99.90
54158;DHT22;40065;49.894;10.358;2023-06-22T04:38:02;25.00;99.90
54158;DHT22;40065;49.894;10.358;2023-06-22T04:43:05;25.60;99.90
54158;DHT22;40065;49.894;10.358;2023-06-22T04:48:08;26.10;99.90
54158;DHT22;40065;49.894;10.358;2023-06-22T04:53:11;26.80;99.60
54158;DHT22;40065;49.894;10.358;2023-06-22T04:58:14;27.20;98.30
54158;DHT22;40065;49.894;10.358;2023-06-22T05:03:16;27.00;98.20
54158;DHT22;40065;49.894;10.358;2023-06-22T05:08:21;27.10;98.00
54158;DHT22;40065;49.894;10.358;2023-06-22T05:13:23;26.80;98.40
54158;DHT22;40065;49.894;10.358;2023-06-22T05:18:31;27.20;98.20
54158;DHT22;40065;49.894;10.358;2023-06-22T05:23:33;27.90;97.20
54158;DHT22;40065;49.894;10.358;2023-06-22T05:28:35;29.00;95.50
54158;DHT22;40065;49.894;10.358;2023-06-22T05:33:37;29.50;94.40
54158;DHT22;40065;49.894;10.358;2023-06-22T05:38:39;30.00;93.40
54158;DHT22;40065;49.894;10.358;2023-06-22T05:43:41;30.50;92.10
54158;DHT22;40065;49.894;10.358;2023-06-22T05:48:43;30.60;91.10
54158;DHT22;40065;49.894;10.358;2023-06-22T05:53:45;30.60;91.60
54158;DHT22;40065;49.894;10.358;2023-06-22T05:58:51;31.00;90.60
54158;DHT22;40065;49.894;10.358;2023-06-22T06:03:53;30.80;91.50
54158;DHT22;40065;49.894;10.358;2023-06-22T06:08:55;31.00;90.60
54158;DHT22;40065;49.894;10.358;2023-06-22T06:13:57;31.10;90.30
54158;DHT22;40065;49.894;10.358;2023-06-22T06:18:58;31.20;90.20
54158;DHT22;40065;49.894;10.358;2023-06-22T06:24:00;31.60;89.10
54158;DHT22;40065;49.894;10.358;2023-06-22T06:29:02;31.70;88.70
54158;DHT22;40065;49.894;10.358;2023-06-22T06:34:05;31.60;88.80
54158;DHT22;40065;49.894;10.358;2023-06-22T06:39:07;32.00;87.40
54158;DHT22;40065;49.894;10.358;2023-06-22T06:44:09;31.60;86.90
54158;DHT22;40065;49.894;10.358;2023-06-22T06:49:10;31.70;87.60
54158;DHT22;40065;49.894;10.358;2023-06-22T06:54:12;32.20;86.10
54158;DHT22;40065;49.894;10.358;2023-06-22T06:59:15;32.20;84.80
54158;DHT22;40065;49.894;10.358;2023-06-22T07:04:17;32.70;84.10
54158;DHT22;40065;49.894;10.358;2023-06-22T07:09:19;32.60;81.60
54158;DHT22;40065;49.894;10.358;2023-06-22T07:14:20;32.90;81.20
54158;DHT22;40065;49.894;10.358;2023-06-22T07:19:26;32.60;81.60
54158;DHT22;40065;49.894;10.358;2023-06-22T07:24:28;33.10;80.70
54158;DHT22;40065;49.894;10.358;2023-06-22T07:29:30;33.90;78.40
54158;DHT22;40065;49.894;10.358;2023-06-22T07:34:33;33.80;78.00
54158;DHT22;40065;49.894;10.358;2023-06-22T07:39:35;33.90;78.70
54158;DHT22;40065;49.894;10.358;2023-06-22T07:44:39;34.10;77.80
54158;DHT22;40065;49.894;10.358;2023-06-22T07:49:41;34.60;75.90
54158;DHT22;40065;49.894;10.358;2023-06-22T07:54:42;34.40;77.00
54158;DHT22;40065;49.894;10.358;2023-06-22T07:59:44;34.30;76.20
54158;DHT22;40065;49.894;10.358;2023-06-22T08:04:47;34.90;75.80
54158;DHT22;40065;49.894;10.358;2023-06-22T08:09:48;35.00;74.20
54158;DHT22;40065;49.894;10.358;2023-06-22T08:14:51;34.50;74.60
54158;DHT22;40065;49.894;10.358;2023-06-22T08:19:52;34.40;74.50
54158;DHT22;40065;49.894;10.358;2023-06-22T08:24:54;34.30;74.60
54158;DHT22;40065;49.894;10.358;2023-06-22T08:29:56;34.90;73.80
54158;DHT22;40065;49.894;10.358;2023-06-22T08:35:00;35.30;72.20
54158;DHT22;40065;49.894;10.358;2023-06-22T08:40:04;35.40;71.00
54158;DHT22;40065;49.894;10.358;2023-06-22T08:45:11;35.60;72.50
54158;DHT22;40065;49.894;10.358;2023-06-22T08:50:13;36.40;67.90
54158;DHT22;40065;49.894;10.358;2023-06-22T08:55:15;36.00;68.90
54158;DHT22;40065;49.894;10.358;2023-06-22T09:00:17;36.10;68.20
54158;DHT22;40065;49.894;10.358;2023-06-22T09:05:21;36.20;67.80
54158;DHT22;40065;49.894;10.358;2023-06-22T09:10:24;35.70;68.40
54158;DHT22;40065;49.894;10.358;2023-06-22T09:15:25;36.20;67.70
54158;DHT22;40065;49.894;10.358;2023-06-22T09:20:27;36.50;65.50
54158;DHT22;40065;49.894;10.358;2023-06-22T09:25:30;36.30;66.10
54158;DHT22;40065;49.894;10.358;2023-06-22T09:30:32;36.50;64.50
54158;DHT22;40065;49.894;10.358;2023-06-22T09:35:34;36.60;64.50
54158;DHT22;40065;49.894;10.358;2023-06-22T09:40:36;37.00;65.30
54158;DHT22;40065;49.894;10.358;2023-06-22T09:45:41;36.90;64.10
54158;DHT22;40065;49.894;10.358;2023-06-22T09:50:43;37.20;63.30
54158;DHT22;40065;49.894;10.358;2023-06-22T09:55:45;37.60;62.30
54158;DHT22;40065;49.894;10.358;2023-06-22T10:00:47;37.40;60.60
54158;DHT22;40065;49.894;10.358;2023-06-22T10:05:49;37.50;60.40
54158;DHT22;40065;49.894;10.358;2023-06-22T10:10:51;37.20;60.90
54158;DHT22;40065;49.894;10.358;2023-06-22T10:15:54;38.00;60.30
54158;DHT22;40065;49.894;10.358;2023-06-22T10:20:56;37.60;60.40
54158;DHT22;40065;49.894;10.358;2023-06-22T10:25:58;38.50;59.20
54158;DHT22;40065;49.894;10.358;2023-06-22T10:31:00;38.30;57.60
54158;DHT22;40065;49.894;10.358;2023-06-22T10:36:02;38.20;58.60
54158;DHT22;40065;49.894;10.358;2023-06-22T10:41:04;38.40;59.60
54158;DHT22;40065;49.894;10.358;2023-06-22T10:46:07;38.50;54.90
54158;DHT22;40065;49.894;10.358;2023-06-22T10:51:09;37.60;56.30
54158;DHT22;40065;49.894;10.358;2023-06-22T10:56:11;38.10;56.00
54158;DHT22;40065;49.894;10.358;2023-06-22T11:01:12;38.00;56.70
54158;DHT22;40065;49.894;10.358;2023-06-22T11:06:35;37.90;56.60
54158;DHT22;40065;49.894;10.358;2023-06-22T11:11:36;37.90;57.30
54158;DHT22;40065;49.894;10.358;2023-06-22T11:16:38;38.50;55.40
54158;DHT22;40065;49.894;10.358;2023-06-22T11:21:40;38.20;55.00
54158;DHT22;40065;49.894;10.358;2023-06-22T11:26:42;38.50;56.20
54158;DHT22;40065;49.894;10.358;2023-06-22T11:31:44;38.50;55.60
54158;DHT22;40065;49.894;10.358;2023-06-22T11:36:46;37.60;55.60
54158;DHT22;40065;49.894;10.358;2023-06-22T11:41:49;37.50;57.40
54158;DHT22;40065;49.894;10.358;2023-06-22T11:46:51;38.30;57.00
54158;DHT22;40065;49.894;10.358;2023-06-22T11:51:53;38.30;54.50
54158;DHT22;40065;49.894;10.358;2023-06-22T11:56:55;38.40;55.50
54158;DHT22;40065;49.894;10.358;2023-06-22T12:01:57;38.50;56.40
54158;DHT22;40065;49.894;10.358;2023-06-22T12:07:00;37.90;56.10
54158;DHT22;40065;49.894;10.358;2023-06-22T12:12:02;38.10;55.60
54158;DHT22;40065;49.894;10.358;2023-06-22T12:17:04;37.80;57.20
54158;DHT22;40065;49.894;10.358;2023-06-22T12:22:06;38.30;56.70
54158;DHT22;40065;49.894;10.358;2023-06-22T12:27:08;38.60;56.50
54158;DHT22;40065;49.894;10.358;2023-06-22T12:32:12;39.30;55.20
54158;DHT22;40065;49.894;10.358;2023-06-22T12:37:16;38.50;55.60
54158;DHT22;40065;49.894;10.358;2023-06-22T12:42:18;38.20;56.00
54158;DHT22;40065;49.894;10.358;2023-06-22T12:47:20;37.80;57.20
54158;DHT22;40065;49.894;10.358;2023-06-22T12:52:22;39.00;55.50
54158;DHT22;40065;49.894;10.358;2023-06-22T12:57:24;38.60;55.70
54158;DHT22;40065;49.894;10.358;2023-06-22T13:02:27;37.90;56.50
54158;DHT22;40065;49.894;10.358;2023-06-22T13:07:29;38.00;56.50
54158;DHT22;40065;49.894;10.358;2023-06-22T13:12:31;37.80;56.60
54158;DHT22;40065;49.894;10.358;2023-06-22T13:17:33;37.30;58.00
54158;DHT22;40065;49.894;10.358;2023-06-22T13:22:35;37.10;57.60
54158;DHT22;40065;49.894;10.358;2023-06-22T13:27:45;36.90;57.80
54158;DHT22;40065;49.894;10.358;2023-06-22T13:32:47;37.60;57.70
54158;DHT22;40065;49.894;10.358;2023-06-22T13:37:49;38.50;56.30
54158;DHT22;40065;49.894;10.358;2023-06-22T13:42:50;38.80;56.10
54158;DHT22;40065;49.894;10.358;2023-06-22T13:47:56;38.40;56.30
54158;DHT22;40065;49.894;10.358;2023-06-22T13:52:58;38.30;56.00
54158;DHT22;40065;49.894;10.358;2023-06-22T13:58:00;38.20;56.30
54158;DHT22;40065;49.894;10.358;2023-06-22T14:03:02;37.40;57.10
54158;DHT22;40065;49.894;10.358;2023-06-22T14:08:06;37.20;57.90
54158;DHT22;40065;49.894;10.358;2023-06-22T14:13:30;37.20;58.50
54158;DHT22;40065;49.894;10.358;2023-06-22T14:18:33;37.70;58.40
54158;DHT22;40065;49.894;10.358;2023-06-22T14:23:35;38.90;58.50
54158;DHT22;40065;49.894;10.358;2023-06-22T14:28:37;40.00;56.80
54158;DHT22;40065;49.894;10.358;2023-06-22T14:33:39;39.90;54.30
54158;DHT22;40065;49.894;10.358;2023-06-22T14:38:40;39.90;54.00
54158;DHT22;40065;49.894;10.358;2023-06-22T14:43:46;40.00;55.30
54158;DHT22;40065;49.894;10.358;2023-06-22T14:48:49;39.90;55.10
54158;DHT22;40065;49.894;10.358;2023-06-22T14:53:51;38.60;55.90
54158;DHT22;40065;49.894;10.358;2023-06-22T14:58:52;38.50;55.80
54158;DHT22;40065;49.894;10.358;2023-06-22T15:03:54;38.30;56.30
54158;DHT22;40065;49.894;10.358;2023-06-22T15:08:56;38.10;57.00
54158;DHT22;40065;49.894;10.358;2023-06-22T15:13:58;37.70;58.60
54158;DHT22;40065;49.894;10.358;2023-06-22T15:19:00;37.50;58.70
54158;DHT22;40065;49.894;10.358;2023-06-22T15:24:01;37.60;57.50
54158;DHT22;40065;49.894;10.358;2023-06-22T15:29:05;37.30;57.80
54158;DHT22;40065;49.894;10.358;2023-06-22T15:34:07;37.30;58.10
54158;DHT22;40065;49.894;10.358;2023-06-22T15:39:09;37.90;57.00
54158;DHT22;40065;49.894;10.358;2023-06-22T15:44:11;38.00;54.00
54158;DHT22;40065;49.894;10.358;2023-06-22T15:49:13;38.30;55.90
54158;DHT22;40065;49.894;10.358;2023-06-22T15:54:15;38.10;54.60
54158;DHT22;40065;49.894;10.358;2023-06-22T15:59:18;38.20;54.00
54158;DHT22;40065;49.894;10.358;2023-06-22T16:04:19;38.00;54.20
54158;DHT22;40065;49.894;10.358;2023-06-22T16:09:21;38.70;52.40
54158;DHT22;40065;49.894;10.358;2023-06-22T16:14:23;37.80;53.80
54158;DHT22;40065;49.894;10.358;2023-06-22T16:19:25;37.90;55.50
54158;DHT22;40065;49.894;10.358;2023-06-22T16:24:27;37.00;57.20
54158;DHT22;40065;49.894;10.358;2023-06-22T16:29:29;37.50;56.60
54158;DHT22;40065;49.894;10.358;2023-06-22T16:34:31;37.20;53.40
54158;DHT22;40065;49.894;10.358;2023-06-22T16:39:33;37.10;52.90
54158;DHT22;40065;49.894;10.358;2023-06-22T16:44:35;36.70;53.20
54158;DHT22;40065;49.894;10.358;2023-06-22T16:49:36;36.50;54.20
54158;DHT22;40065;49.894;10.358;2023-06-22T16:54:38;36.20;55.60
54158;DHT22;40065;49.894;10.358;2023-06-22T17:00:00;35.70;56.80
54158;DHT22;40065;49.894;10.358;2023-06-22T17:05:05;35.50;56.70
54158;DHT22;40065;49.894;10.358;2023-06-22T17:10:08;35.40;56.10
54158;DHT22;40065;49.894;10.358;2023-06-22T17:15:10;34.80;56.90
54158;DHT22;40065;49.894;10.358;2023-06-22T17:20:13;34.60;57.00
54158;DHT22;40065;49.894;10.358;2023-06-22T17:25:17;34.80;57.90
54158;DHT22;40065;49.894;10.358;2023-06-22T17:30:21;34.70;57.90
54158;DHT22;40065;49.894;10.358;2023-06-22T17:35:23;34.30;58.50
54158;DHT22;40065;49.894;10.358;2023-06-22T17:40:25;34.40;57.30
54158;DHT22;40065;49.894;10.358;2023-06-22T17:45:28;34.20;56.80
54158;DHT22;40065;49.894;10.358;2023-06-22T17:50:30;33.90;56.60
54158;DHT22;40065;49.894;10.358;2023-06-22T17:55:33;33.70;57.50
54158;DHT22;40065;49.894;10.358;2023-06-22T18:00:35;33.40;57.80
54158;DHT22;40065;49.894;10.358;2023-06-22T18:05:37;33.40;58.40
54158;DHT22;40065;49.894;10.358;2023-06-22T18:10:42;33.30;58.50
54158;DHT22;40065;49.894;10.358;2023-06-22T18:15:44;33.00;59.10
54158;DHT22;40065;49.894;10.358;2023-06-22T18:20:47;33.00;59.30
54158;DHT22;40065;49.894;10.358;2023-06-22T18:25:49;32.90;59.90
54158;DHT22;40065;49.894;10.358;2023-06-22T18:30:51;32.70;60.50
54158;DHT22;40065;49.894;10.358;2023-06-22T18:35:55;32.50;61.40
54158;DHT22;40065;49.894;10.358;2023-06-22T18:40:58;32.50;61.50
54158;DHT22;40065;49.894;10.358;2023-06-22T18:46:36;32.40;61.90
54158;DHT22;40065;49.894;10.358;2023-06-22T19:12:57;31.70;64.00
54158;DHT22;40065;49.894;10.358;2023-06-22T19:18:02;31.60;63.90
54158;DHT22;40065;49.894;10.358;2023-06-22T19:23:33;31.30;65.10
54158;DHT22;40065;49.894;10.358;2023-06-22T19:28:59;31.30;66.00
54158;DHT22;40065;49.894;10.358;2023-06-22T19:34:04;31.00;66.60
54158;DHT22;40065;49.894;10.358;2023-06-22T19:39:07;31.10;67.10
54158;DHT22;40065;49.894;10.358;2023-06-22T19:44:09;30.60;68.20
54158;DHT22;40065;49.894;10.358;2023-06-22T19:49:11;30.50;68.70
54158;DHT22;40065;49.894;10.358;2023-06-22T19:54:12;30.40;68.70
54158;DHT22;40065;49.894;10.358;2023-06-22T19:59:22;30.50;68.50
54158;DHT22;40065;49.894;10.358;2023-06-22T20:04:24;30.60;68.80
54158;DHT22;40065;49.894;10.358;2023-06-22T20:09:26;30.50;68.50
54158;DHT22;40065;49.894;10.358;2023-06-22T20:14:34;30.60;68.60
54158;DHT22;40065;49.894;10.358;2023-06-22T20:19:37;30.70;68.50
54158;DHT22;40065;49.894;10.358;2023-06-22T20:24:42;31.40;69.00
54158;DHT22;40065;49.894;10.358;2023-06-22T20:29:44;30.20;77.20
54158;DHT22;40065;49.894;10.358;2023-06-22T20:34:46;28.90;79.10
54158;DHT22;40065;49.894;10.358;2023-06-22T20:39:50;27.70;82.20
54158;DHT22;40065;49.894;10.358;2023-06-22T20:44:53;27.20;85.20
54158;DHT22;40065;49.894;10.358;2023-06-22T20:49:54;27.10;87.20
54158;DHT22;40065;49.894;10.358;2023-06-22T20:55:00;27.00;90.30
54158;DHT22;40065;49.894;10.358;2023-06-22T21:00:03;26.80;91.50
54158;DHT22;40065;49.894;10.358;2023-06-22T21:05:08;26.60;93.70
54158;DHT22;40065;49.894;10.358;2023-06-22T21:10:09;26.50;94.50
54158;DHT22;40065;49.894;10.358;2023-06-22T21:15:11;26.50;95.60
54158;DHT22;40065;49.894;10.358;2023-06-22T21:20:13;26.40;95.80
54158;DHT22;40065;49.894;10.358;2023-06-22T21:25:15;26.40;95.90
54158;DHT22;40065;49.894;10.358;2023-06-22T21:30:17;26.40;96.30
54158;DHT22;40065;49.894;10.358;2023-06-22T21:35:19;26.50;95.40
54158;DHT22;40065;49.894;10.358;2023-06-22T21:40:21;26.40;96.60
54158;DHT22;40065;49.894;10.358;2023-06-22T21:45:24;26.40;95.80
54158;DHT22;40065;49.894;10.358;2023-06-22T21:50:26;26.40;95.80
54158;DHT22;40065;49.894;10.358;2023-06-22T21:55:28;26.30;95.40
54158;DHT22;40065;49.894;10.358;2023-06-22T22:00:31;26.30;95.30
54158;DHT22;40065;49.894;10.358;2023-06-22T22:05:35;26.30;95.30
54158;DHT22;40065;49.894;10.358;2023-06-22T22:10:40;27.00;93.80
54158;DHT22;40065;49.894;10.358;2023-06-22T22:15:42;27.20;93.60
54158;DHT22;40065;49.894;10.358;2023-06-22T22:20:44;26.90;94.00
54158;DHT22;40065;49.894;10.358;2023-06-22T22:25:46;26.50;94.80
54158;DHT22;40065;49.894;10.358;2023-06-22T22:30:49;26.40;95.40
54158;DHT22;40065;49.894;10.358;2023-06-22T22:35:51;26.30;95.90
54158;DHT22;40065;49.894;10.358;2023-06-22T22:40:53;25.80;97.10
54158;DHT22;40065;49.894;10.358;2023-06-22T22:45:55;25.90;97.30
54158;DHT22;40065;49.894;10.358;2023-06-22T22:50:59;26.20;96.60
54158;DHT22;40065;49.894;10.358;2023-06-22T22:56:02;26.30;96.70
54158;DHT22;40065;49.894;10.358;2023-06-22T23:01:04;26.50;96.10
54158;DHT22;40065;49.894;10.358;2023-06-22T23:06:07;26.40;96.30
54158;DHT22;40065;49.894;10.358;2023-06-22T23:11:09;26.30;96.50
54158;DHT22;40065;49.894;10.358;2023-06-22T23:16:11;26.20;96.70
54158;DHT22;40065;49.894;10.358;2023-06-22T23:21:13;26.00;97.30
54158;DHT22;40065;49.894;10.358;2023-06-22T23:26:15;25.80;97.50
54158;DHT22;40065;49.894;10.358;2023-06-22T23:31:17;25.80;97.90
54158;DHT22;40065;49.894;10.358;2023-06-22T23:36:20;26.00;97.50
54158;DHT22;40065;49.894;10.358;2023-06-22T23:41:22;25.80;97.90
54158;DHT22;40065;49.894;10.358;2023-06-22T23:46:28;25.40;97.50
54158;DHT22;40065;49.894;10.358;2023-06-22T23:51:33;25.60;96.60
54158;DHT22;40065;49.894;10.358;2023-06-22T23:56:38;25.80;94.80
